sensor_id;sensor_type;location;lat;lon;timestamp;temperature;humidity
17092;DHT22;8661;45.700;4.880;2023-03-19T00:02:26;10.50;96.60
17092;DHT22;8661;45.700;4.880;2023-03-19T00:04:53;10.40;96.90
17092;DHT22;8661;45.700;4.880;2023-03-19T00:07:20;10.30;97.20
17092;DHT22;8661;45.700;4.880;2023-03-19T00:09:46;10.30;98.00
17092;DHT22;8661;45.700;4.880;2023-03-19T00:12:13;10.30;98.20
17092;DHT22;8661;45.700;4.880;2023-03-19T00:14:40;10.30;98.50
17092;DHT22;8661;45.700;4.880;2023-03-19T00:17:09;10.30;99.10
17092;DHT22;8661;45.700;4.880;2023-03-19T00:19:36;10.20;99.90
17092;DHT22;8661;45.700;4.880;2023-03-19T00:22:04;10.20;99.90
17092;DHT22;8661;45.700;4.880;2023-03-19T00:24:31;10.20;99.90
17092;DHT22;8661;45.700;4.880;2023-03-19T00:26:57;10.20;99.90
17092;DHT22;8661;45.700;4.880;2023-03-19T00:29:24;10.20;99.90
17092;DHT22;8661;45.700;4.880;2023-03-19T00:31:52;10.20;99.90
17092;DHT22;8661;45.700;4.880;2023-03-19T00:34:20;10.30;99.90
17092;DHT22;8661;45.700;4.880;2023-03-19T00:36:47;10.30;99.90
17092;DHT22;8661;45.700;4.880;2023-03-19T00:39:14;10.20;99.90
17092;DHT22;8661;45.700;4.880;2023-03-19T00:41:42;10.20;99.90
17092;DHT22;8661;45.700;4.880;2023-03-19T00:44:15;10.20;99.90
17092;DHT22;8661;45.700;4.880;2023-03-19T00:46:41;10.20;99.90
17092;DHT22;8661;45.700;4.880;2023-03-19T00:49:08;10.20;99.90
17092;DHT22;8661;45.700;4.880;2023-03-19T00:51:37;10.30;99.90
17092;DHT22;8661;45.700;4.880;2023-03-19T00:54:08;10.30;99.90
17092;DHT22;8661;45.700;4.880;2023-03-19T00:56:36;10.40;99.90
17092;DHT22;8661;45.700;4.880;2023-03-19T00:59:03;10.40;99.90
17092;DHT22;8661;45.700;4.880;2023-03-19T01:01:30;10.50;99.90
17092;DHT22;8661;45.700;4.880;2023-03-19T01:03:57;10.50;99.90
17092;DHT22;8661;45.700;4.880;2023-03-19T01:06:23;10.60;99.90
17092;DHT22;8661;45.700;4.880;2023-03-19T01:08:52;10.60;99.90
17092;DHT22;8661;45.700;4.880;2023-03-19T01:11:20;10.60;99.90
17092;DHT22;8661;45.700;4.880;2023-03-19T01:13:47;10.60;99.90
17092;DHT22;8661;45.700;4.880;2023-03-19T01:16:13;10.60;99.90
17092;DHT22;8661;45.700;4.880;2023-03-19T01:18:40;10.60;99.90
17092;DHT22;8661;45.700;4.880;2023-03-19T01:21:07;10.70;99.90
17092;DHT22;8661;45.700;4.880;2023-03-19T01:23:35;10.70;99.90
17092;DHT22;8661;45.700;4.880;2023-03-19T01:26:03;10.60;99.90
17092;DHT22;8661;45.700;4.880;2023-03-19T01:28:30;10.70;99.90
17092;DHT22;8661;45.700;4.880;2023-03-19T01:30:58;10.60;99.90
17092;DHT22;8661;45.700;4.880;2023-03-19T01:33:27;10.70;99.90
17092;DHT22;8661;45.700;4.880;2023-03-19T01:35:54;10.70;99.90
17092;DHT22;8661;45.700;4.880;2023-03-19T01:38:22;10.80;99.90
17092;DHT22;8661;45.700;4.880;2023-03-19T01:40:50;10.80;99.90
17092;DHT22;8661;45.700;4.880;2023-03-19T01:43:19;10.80;99.90
17092;DHT22;8661;45.700;4.880;2023-03-19T01:45:47;10.90;99.90
17092;DHT22;8661;45.700;4.880;2023-03-19T01:48:24;10.90;99.90
17092;DHT22;8661;45.700;4.880;2023-03-19T01:50:52;10.90;99.90
17092;DHT22;8661;45.700;4.880;2023-03-19T01:53:23;10.90;99.90
17092;DHT22;8661;45.700;4.880;2023-03-19T01:55:54;10.90;99.90
17092;DHT22;8661;45.700;4.880;2023-03-19T01:58:23;10.90;99.90
17092;DHT22;8661;45.700;4.880;2023-03-19T02:00:51;10.90;99.90
17092;DHT22;8661;45.700;4.880;2023-03-19T02:03:18;10.90;99.90
17092;DHT22;8661;45.700;4.880;2023-03-19T02:05:46;10.90;99.90
17092;DHT22;8661;45.700;4.880;2023-03-19T02:08:15;10.90;99.90
17092;DHT22;8661;45.700;4.880;2023-03-19T02:10:43;10.90;99.90
17092;DHT22;8661;45.700;4.880;2023-03-19T02:13:12;10.90;99.90
17092;DHT22;8661;45.700;4.880;2023-03-19T02:15:41;10.90;99.90
17092;DHT22;8661;45.700;4.880;2023-03-19T02:18:08;10.90;99.90
17092;DHT22;8661;45.700;4.880;2023-03-19T02:20:42;10.90;99.90
17092;DHT22;8661;45.700;4.880;2023-03-19T02:23:16;10.90;99.90
17092;DHT22;8661;45.700;4.880;2023-03-19T02:26:00;10.90;99.90
17092;DHT22;8661;45.700;4.880;2023-03-19T02:28:29;10.80;99.90
17092;DHT22;8661;45.700;4.880;2023-03-19T02:30:58;10.80;99.90
17092;DHT22;8661;45.700;4.880;2023-03-19T02:33:25;10.80;99.90
17092;DHT22;8661;45.700;4.880;2023-03-19T02:35:52;10.70;99.90
17092;DHT22;8661;45.700;4.880;2023-03-19T02:38:20;10.70;99.90
17092;DHT22;8661;45.700;4.880;2023-03-19T02:40:50;10.70;99.90
17092;DHT22;8661;45.700;4.880;2023-03-19T02:43:20;10.70;99.90
17092;DHT22;8661;45.700;4.880;2023-03-19T02:45:47;10.70;99.90
17092;DHT22;8661;45.700;4.880;2023-03-19T02:48:14;10.70;99.90
17092;DHT22;8661;45.700;4.880;2023-03-19T02:50:41;10.70;99.90
17092;DHT22;8661;45.700;4.880;2023-03-19T02:53:08;10.70;99.90
17092;DHT22;8661;45.700;4.880;2023-03-19T02:55:35;10.70;99.90
17092;DHT22;8661;45.700;4.880;2023-03-19T02:58:02;10.80;99.90
17092;DHT22;8661;45.700;4.880;2023-03-19T03:00:30;10.80;99.90
17092;DHT22;8661;45.700;4.880;2023-03-19T03:02:57;10.80;99.90
17092;DHT22;8661;45.700;4.880;2023-03-19T03:05:25;10.80;99.90
17092;DHT22;8661;45.700;4.880;2023-03-19T03:07:51;10.90;99.90
17092;DHT22;8661;45.700;4.880;2023-03-19T03:10:18;10.90;99.90
17092;DHT22;8661;45.700;4.880;2023-03-19T03:12:45;10.90;99.90
17092;DHT22;8661;45.700;4.880;2023-03-19T03:15:12;10.90;99.90
17092;DHT22;8661;45.700;4.880;2023-03-19T03:17:43;10.90;99.90
17092;DHT22;8661;45.700;4.880;2023-03-19T03:20:13;10.90;99.90
17092;DHT22;8661;45.700;4.880;2023-03-19T03:22:40;11.00;99.90
17092;DHT22;8661;45.700;4.880;2023-03-19T03:25:08;11.00;99.90
17092;DHT22;8661;45.700;4.880;2023-03-19T03:27:36;11.00;99.90
17092;DHT22;8661;45.700;4.880;2023-03-19T03:30:03;11.00;99.90
17092;DHT22;8661;45.700;4.880;2023-03-19T03:32:31;11.00;99.90
17092;DHT22;8661;45.700;4.880;2023-03-19T03:34:59;11.00;99.90
17092;DHT22;8661;45.700;4.880;2023-03-19T03:37:26;11.00;99.90
17092;DHT22;8661;45.700;4.880;2023-03-19T03:39:53;11.00;99.90
17092;DHT22;8661;45.700;4.880;2023-03-19T03:42:20;11.00;99.90
17092;DHT22;8661;45.700;4.880;2023-03-19T03:44:47;11.00;99.90
17092;DHT22;8661;45.700;4.880;2023-03-19T03:47:14;11.00;99.90
17092;DHT22;8661;45.700;4.880;2023-03-19T03:49:42;11.00;99.90
17092;DHT22;8661;45.700;4.880;2023-03-19T03:52:10;11.00;99.90
17092;DHT22;8661;45.700;4.880;2023-03-19T03:54:37;10.90;99.90
17092;DHT22;8661;45.700;4.880;2023-03-19T03:57:04;10.90;99.90
17092;DHT22;8661;45.700;4.880;2023-03-19T03:59:32;10.90;99.90
17092;DHT22;8661;45.700;4.880;2023-03-19T04:01:59;10.90;99.90
17092;DHT22;8661;45.700;4.880;2023-03-19T04:04:26;10.90;99.90
17092;DHT22;8661;45.700;4.880;2023-03-19T04:06:53;10.90;99.90
17092;DHT22;8661;45.700;4.880;2023-03-19T04:09:21;10.90;99.90
17092;DHT22;8661;45.700;4.880;2023-03-19T04:11:48;10.90;99.90
17092;DHT22;8661;45.700;4.880;2023-03-19T04:14:15;10.80;99.90
17092;DHT22;8661;45.700;4.880;2023-03-19T04:16:42;10.80;99.90
17092;DHT22;8661;45.700;4.880;2023-03-19T04:19:08;10.80;99.90
17092;DHT22;8661;45.700;4.880;2023-03-19T04:21:35;10.80;99.90
17092;DHT22;8661;45.700;4.880;2023-03-19T04:24:02;10.80;99.90
17092;DHT22;8661;45.700;4.880;2023-03-19T04:26:31;10.80;99.90
17092;DHT22;8661;45.700;4.880;2023-03-19T04:28:58;10.80;99.90
17092;DHT22;8661;45.700;4.880;2023-03-19T04:31:25;10.80;99.90
17092;DHT22;8661;45.700;4.880;2023-03-19T04:33:51;10.70;99.90
17092;DHT22;8661;45.700;4.880;2023-03-19T04:36:19;10.80;99.90
17092;DHT22;8661;45.700;4.880;2023-03-19T04:38:47;10.70;99.90
17092;DHT22;8661;45.700;4.880;2023-03-19T04:41:13;10.70;99.90
17092;DHT22;8661;45.700;4.880;2023-03-19T04:43:42;10.70;99.90
17092;DHT22;8661;45.700;4.880;2023-03-19T04:46:09;10.70;99.90
17092;DHT22;8661;45.700;4.880;2023-03-19T04:48:36;10.70;99.90
17092;DHT22;8661;45.700;4.880;2023-03-19T04:51:04;10.70;99.90
17092;DHT22;8661;45.700;4.880;2023-03-19T04:53:33;10.70;99.90
17092;DHT22;8661;45.700;4.880;2023-03-19T04:56:00;10.70;99.90
17092;DHT22;8661;45.700;4.880;2023-03-19T04:58:27;10.70;99.90
17092;DHT22;8661;45.700;4.880;2023-03-19T05:00:56;10.80;99.90
17092;DHT22;8661;45.700;4.880;2023-03-19T05:03:23;10.70;99.90
17092;DHT22;8661;45.700;4.880;2023-03-19T05:05:52;10.70;99.90
17092;DHT22;8661;45.700;4.880;2023-03-19T05:08:19;10.70;99.90
17092;DHT22;8661;45.700;4.880;2023-03-19T05:10:46;10.70;99.90
17092;DHT22;8661;45.700;4.880;2023-03-19T05:13:13;10.70;99.90
17092;DHT22;8661;45.700;4.880;2023-03-19T05:15:41;10.70;99.90
17092;DHT22;8661;45.700;4.880;2023-03-19T05:18:09;10.70;99.90
17092;DHT22;8661;45.700;4.880;2023-03-19T05:20:37;10.70;99.90
17092;DHT22;8661;45.700;4.880;2023-03-19T05:23:04;10.70;99.90
17092;DHT22;8661;45.700;4.880;2023-03-19T05:25:33;10.70;99.90
17092;DHT22;8661;45.700;4.880;2023-03-19T05:28:00;10.70;99.90
17092;DHT22;8661;45.700;4.880;2023-03-19T05:30:27;10.70;99.90
17092;DHT22;8661;45.700;4.880;2023-03-19T05:32:55;10.80;99.90
17092;DHT22;8661;45.700;4.880;2023-03-19T05:35:23;10.80;99.90
17092;DHT22;8661;45.700;4.880;2023-03-19T05:37:51;10.80;99.90
17092;DHT22;8661;45.700;4.880;2023-03-19T05:40:18;10.80;99.90
17092;DHT22;8661;45.700;4.880;2023-03-19T05:42:44;10.70;99.90
17092;DHT22;8661;45.700;4.880;2023-03-19T05:45:11;10.80;99.90
17092;DHT22;8661;45.700;4.880;2023-03-19T05:47:39;10.80;99.90
17092;DHT22;8661;45.700;4.880;2023-03-19T05:50:07;10.80;99.90
17092;DHT22;8661;45.700;4.880;2023-03-19T05:52:35;10.80;99.90
17092;DHT22;8661;45.700;4.880;2023-03-19T05:55:02;10.80;99.90
17092;DHT22;8661;45.700;4.880;2023-03-19T05:57:29;10.80;99.90
17092;DHT22;8661;45.700;4.880;2023-03-19T05:59:56;10.90;99.90
17092;DHT22;8661;45.700;4.880;2023-03-19T06:02:23;10.80;99.90
17092;DHT22;8661;45.700;4.880;2023-03-19T06:04:50;10.90;99.90
17092;DHT22;8661;45.700;4.880;2023-03-19T06:07:17;10.90;99.90
17092;DHT22;8661;45.700;4.880;2023-03-19T06:09:45;10.90;99.90
17092;DHT22;8661;45.700;4.880;2023-03-19T06:12:12;10.90;99.90
17092;DHT22;8661;45.700;4.880;2023-03-19T06:14:39;10.90;99.90
17092;DHT22;8661;45.700;4.880;2023-03-19T06:17:06;11.00;99.90
17092;DHT22;8661;45.700;4.880;2023-03-19T06:19:33;11.00;99.90
17092;DHT22;8661;45.700;4.880;2023-03-19T06:22:00;11.00;99.90
17092;DHT22;8661;45.700;4.880;2023-03-19T06:24:27;11.10;99.90
17092;DHT22;8661;45.700;4.880;2023-03-19T06:26:58;11.10;99.90
17092;DHT22;8661;45.700;4.880;2023-03-19T06:29:25;11.20;99.90
17092;DHT22;8661;45.700;4.880;2023-03-19T06:31:53;11.20;99.90
17092;DHT22;8661;45.700;4.880;2023-03-19T06:34:20;11.20;99.90
17092;DHT22;8661;45.700;4.880;2023-03-19T06:36:47;11.20;99.90
17092;DHT22;8661;45.700;4.880;2023-03-19T06:39:14;11.20;99.90
17092;DHT22;8661;45.700;4.880;2023-03-19T06:41:41;11.30;99.90
17092;DHT22;8661;45.700;4.880;2023-03-19T06:44:09;11.30;99.90
17092;DHT22;8661;45.700;4.880;2023-03-19T06:46:36;11.40;99.90
17092;DHT22;8661;45.700;4.880;2023-03-19T06:49:03;11.40;99.90
17092;DHT22;8661;45.700;4.880;2023-03-19T06:51:30;11.40;99.90
17092;DHT22;8661;45.700;4.880;2023-03-19T06:53:57;11.50;99.90
17092;DHT22;8661;45.700;4.880;2023-03-19T06:56:24;11.50;99.90
17092;DHT22;8661;45.700;4.880;2023-03-19T06:58:50;11.60;99.90
17092;DHT22;8661;45.700;4.880;2023-03-19T07:01:19;11.60;99.90
17092;DHT22;8661;45.700;4.880;2023-03-19T07:03:46;11.60;99.90
17092;DHT22;8661;45.700;4.880;2023-03-19T07:06:13;11.70;99.90
17092;DHT22;8661;45.700;4.880;2023-03-19T07:08:39;11.80;99.90
17092;DHT22;8661;45.700;4.880;2023-03-19T07:11:11;11.80;99.90
17092;DHT22;8661;45.700;4.880;2023-03-19T07:13:37;11.90;99.90
17092;DHT22;8661;45.700;4.880;2023-03-19T07:16:05;11.90;99.90
17092;DHT22;8661;45.700;4.880;2023-03-19T07:18:34;12.00;99.90
17092;DHT22;8661;45.700;4.880;2023-03-19T07:21:01;12.10;99.90
17092;DHT22;8661;45.700;4.880;2023-03-19T07:23:28;12.50;99.90
17092;DHT22;8661;45.700;4.880;2023-03-19T07:25:55;12.80;99.90
17092;DHT22;8661;45.700;4.880;2023-03-19T07:28:22;12.90;99.90
17092;DHT22;8661;45.700;4.880;2023-03-19T07:30:50;13.00;99.90
17092;DHT22;8661;45.700;4.880;2023-03-19T07:33:17;13.00;99.90
17092;DHT22;8661;45.700;4.880;2023-03-19T07:35:46;13.10;99.90
17092;DHT22;8661;45.700;4.880;2023-03-19T07:38:13;13.00;99.90
17092;DHT22;8661;45.700;4.880;2023-03-19T07:40:40;13.00;99.90
17092;DHT22;8661;45.700;4.880;2023-03-19T07:43:07;13.00;99.90
17092;DHT22;8661;45.700;4.880;2023-03-19T07:45:34;13.20;99.90
17092;DHT22;8661;45.700;4.880;2023-03-19T07:48:00;13.30;99.90
17092;DHT22;8661;45.700;4.880;2023-03-19T07:50:28;13.30;99.90
17092;DHT22;8661;45.700;4.880;2023-03-19T07:52:56;13.30;99.90
17092;DHT22;8661;45.700;4.880;2023-03-19T07:55:23;13.30;99.90
17092;DHT22;8661;45.700;4.880;2023-03-19T07:57:50;13.20;99.90
17092;DHT22;8661;45.700;4.880;2023-03-19T08:00:18;13.20;99.90
17092;DHT22;8661;45.700;4.880;2023-03-19T08:02:45;13.20;99.90
17092;DHT22;8661;45.700;4.880;2023-03-19T08:05:11;13.10;99.90
17092;DHT22;8661;45.700;4.880;2023-03-19T08:07:39;13.10;99.90
17092;DHT22;8661;45.700;4.880;2023-03-19T08:10:09;13.00;99.90
17092;DHT22;8661;45.700;4.880;2023-03-19T08:12:36;13.00;99.90
17092;DHT22;8661;45.700;4.880;2023-03-19T08:15:07;13.10;99.90
17092;DHT22;8661;45.700;4.880;2023-03-19T08:17:34;13.10;99.90
17092;DHT22;8661;45.700;4.880;2023-03-19T08:20:04;13.10;99.90
17092;DHT22;8661;45.700;4.880;2023-03-19T08:22:33;13.10;99.90
17092;DHT22;8661;45.700;4.880;2023-03-19T08:25:00;13.30;99.90
17092;DHT22;8661;45.700;4.880;2023-03-19T08:27:28;13.40;99.90
17092;DHT22;8661;45.700;4.880;2023-03-19T08:29:56;13.50;99.90
17092;DHT22;8661;45.700;4.880;2023-03-19T08:32:23;13.60;99.90
17092;DHT22;8661;45.700;4.880;2023-03-19T08:34:50;13.80;99.90
17092;DHT22;8661;45.700;4.880;2023-03-19T08:37:17;13.90;99.90
17092;DHT22;8661;45.700;4.880;2023-03-19T08:39:44;14.00;99.90
17092;DHT22;8661;45.700;4.880;2023-03-19T08:42:13;14.20;99.90
17092;DHT22;8661;45.700;4.880;2023-03-19T08:44:41;14.30;99.90
17092;DHT22;8661;45.700;4.880;2023-03-19T08:47:08;14.30;99.90
17092;DHT22;8661;45.700;4.880;2023-03-19T08:49:36;14.40;99.90
17092;DHT22;8661;45.700;4.880;2023-03-19T08:52:05;14.60;99.90
17092;DHT22;8661;45.700;4.880;2023-03-19T08:54:32;14.70;99.90
17092;DHT22;8661;45.700;4.880;2023-03-19T08:56:59;15.00;99.90
17092;DHT22;8661;45.700;4.880;2023-03-19T08:59:26;15.30;99.90
17092;DHT22;8661;45.700;4.880;2023-03-19T09:01:56;15.80;99.90
17092;DHT22;8661;45.700;4.880;2023-03-19T09:04:22;16.30;99.90
17092;DHT22;8661;45.700;4.880;2023-03-19T09:06:50;16.60;99.90
17092;DHT22;8661;45.700;4.880;2023-03-19T09:09:18;17.10;99.90
17092;DHT22;8661;45.700;4.880;2023-03-19T09:11:45;17.60;99.90
17092;DHT22;8661;45.700;4.880;2023-03-19T09:14:13;17.90;99.90
17092;DHT22;8661;45.700;4.880;2023-03-19T09:16:41;18.10;99.90
17092;DHT22;8661;45.700;4.880;2023-03-19T09:19:10;17.90;99.90
17092;DHT22;8661;45.700;4.880;2023-03-19T09:21:37;17.90;99.90
17092;DHT22;8661;45.700;4.880;2023-03-19T09:24:04;18.00;99.90
17092;DHT22;8661;45.700;4.880;2023-03-19T09:26:32;18.00;99.90
17092;DHT22;8661;45.700;4.880;2023-03-19T09:28:59;17.90;99.90
17092;DHT22;8661;45.700;4.880;2023-03-19T09:31:25;18.10;99.90
17092;DHT22;8661;45.700;4.880;2023-03-19T09:33:53;18.20;99.90
17092;DHT22;8661;45.700;4.880;2023-03-19T09:36:22;18.20;99.90
17092;DHT22;8661;45.700;4.880;2023-03-19T09:38:50;18.10;99.90
17092;DHT22;8661;45.700;4.880;2023-03-19T09:41:25;18.10;99.90
17092;DHT22;8661;45.700;4.880;2023-03-19T09:44:00;18.70;99.80
17092;DHT22;8661;45.700;4.880;2023-03-19T09:46:35;19.30;98.00
17092;DHT22;8661;45.700;4.880;2023-03-19T09:49:09;19.40;97.30
17092;DHT22;8661;45.700;4.880;2023-03-19T09:51:44;19.40;97.30
17092;DHT22;8661;45.700;4.880;2023-03-19T09:54:24;19.50;96.90
17092;DHT22;8661;45.700;4.880;2023-03-19T09:56:52;19.40;96.70
17092;DHT22;8661;45.700;4.880;2023-03-19T09:59:20;19.30;96.90
17092;DHT22;8661;45.700;4.880;2023-03-19T10:01:54;19.20;96.70
17092;DHT22;8661;45.700;4.880;2023-03-19T10:04:38;19.00;95.90
17092;DHT22;8661;45.700;4.880;2023-03-19T10:07:16;18.90;95.30
17092;DHT22;8661;45.700;4.880;2023-03-19T10:10:00;18.70;96.30
17092;DHT22;8661;45.700;4.880;2023-03-19T10:12:44;18.60;96.30
17092;DHT22;8661;45.700;4.880;2023-03-19T10:15:18;18.50;96.10
17092;DHT22;8661;45.700;4.880;2023-03-19T10:17:53;18.20;96.50
17092;DHT22;8661;45.700;4.880;2023-03-19T10:20:29;18.10;96.60
17092;DHT22;8661;45.700;4.880;2023-03-19T10:23:07;18.20;96.60
17092;DHT22;8661;45.700;4.880;2023-03-19T10:25:36;18.30;96.10
17092;DHT22;8661;45.700;4.880;2023-03-19T10:28:12;18.40;96.60
17092;DHT22;8661;45.700;4.880;2023-03-19T10:30:40;18.50;96.30
17092;DHT22;8661;45.700;4.880;2023-03-19T10:33:15;18.50;95.80
17092;DHT22;8661;45.700;4.880;2023-03-19T10:35:48;18.50;95.40
17092;DHT22;8661;45.700;4.880;2023-03-19T10:38:21;18.50;95.00
17092;DHT22;8661;45.700;4.880;2023-03-19T10:41:00;18.60;95.40
17092;DHT22;8661;45.700;4.880;2023-03-19T10:43:30;18.80;95.00
17092;DHT22;8661;45.700;4.880;2023-03-19T10:45:59;18.80;95.10
17092;DHT22;8661;45.700;4.880;2023-03-19T10:48:26;18.90;94.60
17092;DHT22;8661;45.700;4.880;2023-03-19T10:50:56;18.90;94.60
17092;DHT22;8661;45.700;4.880;2023-03-19T10:53:30;19.10;94.30
17092;DHT22;8661;45.700;4.880;2023-03-19T10:56:01;19.30;93.70
17092;DHT22;8661;45.700;4.880;2023-03-19T10:58:29;19.10;93.60
17092;DHT22;8661;45.700;4.880;2023-03-19T11:00:58;19.10;93.80
17092;DHT22;8661;45.700;4.880;2023-03-19T11:03:30;19.30;93.20
17092;DHT22;8661;45.700;4.880;2023-03-19T11:06:16;19.60;92.40
17092;DHT22;8661;45.700;4.880;2023-03-19T11:08:51;19.80;91.40
17092;DHT22;8661;45.700;4.880;2023-03-19T11:11:31;20.10;91.00
17092;DHT22;8661;45.700;4.880;2023-03-19T11:14:06;20.20;90.90
17092;DHT22;8661;45.700;4.880;2023-03-19T11:16:50;20.50;90.20
17092;DHT22;8661;45.700;4.880;2023-03-19T11:19:19;20.70;88.70
17092;DHT22;8661;45.700;4.880;2023-03-19T11:22:00;21.10;88.30
17092;DHT22;8661;45.700;4.880;2023-03-19T11:24:32;21.30;86.10
17092;DHT22;8661;45.700;4.880;2023-03-19T11:26:59;21.60;85.70
17092;DHT22;8661;45.700;4.880;2023-03-19T11:29:28;22.00;83.80
17092;DHT22;8661;45.700;4.880;2023-03-19T11:32:04;22.00;83.30
17092;DHT22;8661;45.700;4.880;2023-03-19T11:34:42;21.70;83.60
17092;DHT22;8661;45.700;4.880;2023-03-19T11:37:15;21.40;84.20
17092;DHT22;8661;45.700;4.880;2023-03-19T11:39:51;21.70;84.50
17092;DHT22;8661;45.700;4.880;2023-03-19T11:42:55;21.90;82.90
17092;DHT22;8661;45.700;4.880;2023-03-19T11:45:30;22.80;79.50
17092;DHT22;8661;45.700;4.880;2023-03-19T11:48:11;22.40;80.80
17092;DHT22;8661;45.700;4.880;2023-03-19T11:50:47;22.10;80.90
17092;DHT22;8661;45.700;4.880;2023-03-19T11:53:21;22.00;81.50
17092;DHT22;8661;45.700;4.880;2023-03-19T11:55:57;21.60;81.50
17092;DHT22;8661;45.700;4.880;2023-03-19T12:01:37;21.00;83.40
17092;DHT22;8661;45.700;4.880;2023-03-19T12:04:27;20.90;83.40
17092;DHT22;8661;45.700;4.880;2023-03-19T12:07:02;20.70;83.40
17092;DHT22;8661;45.700;4.880;2023-03-19T12:09:37;20.60;84.50
17092;DHT22;8661;45.700;4.880;2023-03-19T12:12:16;20.40;85.00
17092;DHT22;8661;45.700;4.880;2023-03-19T12:14:52;20.50;84.80
17092;DHT22;8661;45.700;4.880;2023-03-19T12:17:33;20.40;84.10
17092;DHT22;8661;45.700;4.880;2023-03-19T12:20:19;20.30;84.30
17092;DHT22;8661;45.700;4.880;2023-03-19T12:22:58;20.60;84.80
17092;DHT22;8661;45.700;4.880;2023-03-19T12:25:39;21.30;83.60
17092;DHT22;8661;45.700;4.880;2023-03-19T12:28:14;22.30;80.60
17092;DHT22;8661;45.700;4.880;2023-03-19T12:30:48;22.50;78.60
17092;DHT22;8661;45.700;4.880;2023-03-19T12:33:31;22.30;78.30
17092;DHT22;8661;45.700;4.880;2023-03-19T12:36:02;22.80;77.20
17092;DHT22;8661;45.700;4.880;2023-03-19T12:38:36;22.20;78.50
17092;DHT22;8661;45.700;4.880;2023-03-19T12:41:07;22.30;78.70
17092;DHT22;8661;45.700;4.880;2023-03-19T12:43:45;22.20;78.70
17092;DHT22;8661;45.700;4.880;2023-03-19T12:46:19;22.30;78.70
17092;DHT22;8661;45.700;4.880;2023-03-19T12:48:51;22.50;78.60
17092;DHT22;8661;45.700;4.880;2023-03-19T12:51:23;22.90;78.60
17092;DHT22;8661;45.700;4.880;2023-03-19T12:53:54;23.00;78.20
17092;DHT22;8661;45.700;4.880;2023-03-19T12:56:25;22.90;77.80
17092;DHT22;8661;45.700;4.880;2023-03-19T12:58:58;22.70;77.60
17092;DHT22;8661;45.700;4.880;2023-03-19T13:01:31;22.10;77.80
17092;DHT22;8661;45.700;4.880;2023-03-19T13:04:04;21.30;80.10
17092;DHT22;8661;45.700;4.880;2023-03-19T13:06:35;20.70;82.00
17092;DHT22;8661;45.700;4.880;2023-03-19T13:09:06;20.40;83.70
17092;DHT22;8661;45.700;4.880;2023-03-19T13:11:42;20.70;83.80
17092;DHT22;8661;45.700;4.880;2023-03-19T13:14:17;20.90;83.40
17092;DHT22;8661;45.700;4.880;2023-03-19T13:16:51;21.10;83.00
17092;DHT22;8661;45.700;4.880;2023-03-19T13:19:24;20.80;83.40
17092;DHT22;8661;45.700;4.880;2023-03-19T13:21:54;20.50;84.20
17092;DHT22;8661;45.700;4.880;2023-03-19T13:24:25;20.20;86.20
17092;DHT22;8661;45.700;4.880;2023-03-19T13:26:53;20.00;85.20
17092;DHT22;8661;45.700;4.880;2023-03-19T13:29:24;19.70;85.60
17092;DHT22;8661;45.700;4.880;2023-03-19T13:31:52;19.30;87.20
17092;DHT22;8661;45.700;4.880;2023-03-19T13:34:27;19.10;88.30
17092;DHT22;8661;45.700;4.880;2023-03-19T13:37:00;18.80;89.10
17092;DHT22;8661;45.700;4.880;2023-03-19T13:39:32;18.60;90.00
17092;DHT22;8661;45.700;4.880;2023-03-19T13:42:10;18.50;91.10
17092;DHT22;8661;45.700;4.880;2023-03-19T13:44:50;18.60;92.10
17092;DHT22;8661;45.700;4.880;2023-03-19T13:47:39;19.10;92.20
17092;DHT22;8661;45.700;4.880;2023-03-19T13:50:26;19.70;92.10
17092;DHT22;8661;45.700;4.880;2023-03-19T13:53:11;20.20;90.60
17092;DHT22;8661;45.700;4.880;2023-03-19T13:55:50;20.30;88.30
17092;DHT22;8661;45.700;4.880;2023-03-19T13:58:20;20.30;88.90
17092;DHT22;8661;45.700;4.880;2023-03-19T14:01:09;20.10;87.90
17092;DHT22;8661;45.700;4.880;2023-03-19T14:03:39;19.90;87.70
17092;DHT22;8661;45.700;4.880;2023-03-19T14:06:31;19.60;88.00
17092;DHT22;8661;45.700;4.880;2023-03-19T14:08:59;19.60;88.80
17092;DHT22;8661;45.700;4.880;2023-03-19T14:11:29;20.00;87.80
17092;DHT22;8661;45.700;4.880;2023-03-19T14:14:00;20.20;87.50
17092;DHT22;8661;45.700;4.880;2023-03-19T14:16:32;20.30;87.10
17092;DHT22;8661;45.700;4.880;2023-03-19T14:19:02;20.40;86.20
17092;DHT22;8661;45.700;4.880;2023-03-19T14:21:38;20.10;85.80
17092;DHT22;8661;45.700;4.880;2023-03-19T14:24:32;19.80;85.10
17092;DHT22;8661;45.700;4.880;2023-03-19T14:27:03;19.20;85.80
17092;DHT22;8661;45.700;4.880;2023-03-19T14:29:41;18.70;88.10
17092;DHT22;8661;45.700;4.880;2023-03-19T14:32:15;18.60;89.70
17092;DHT22;8661;45.700;4.880;2023-03-19T14:34:44;18.50;90.60
17092;DHT22;8661;45.700;4.880;2023-03-19T14:37:18;18.70;90.70
17092;DHT22;8661;45.700;4.880;2023-03-19T14:39:51;18.70;91.10
17092;DHT22;8661;45.700;4.880;2023-03-19T14:42:20;18.60;91.40
17092;DHT22;8661;45.700;4.880;2023-03-19T14:45:20;18.40;91.50
17092;DHT22;8661;45.700;4.880;2023-03-19T14:48:22;18.10;92.00
17092;DHT22;8661;45.700;4.880;2023-03-19T14:51:07;17.60;93.10
17092;DHT22;8661;45.700;4.880;2023-03-19T14:53:40;17.50;93.60
17092;DHT22;8661;45.700;4.880;2023-03-19T14:56:14;17.80;93.50
17092;DHT22;8661;45.700;4.880;2023-03-19T14:58:48;18.40;93.10
17092;DHT22;8661;45.700;4.880;2023-03-19T15:01:16;18.70;93.10
17092;DHT22;8661;45.700;4.880;2023-03-19T15:03:50;19.00;92.50
17092;DHT22;8661;45.700;4.880;2023-03-19T15:06:17;19.30;92.10
17092;DHT22;8661;45.700;4.880;2023-03-19T15:08:44;19.60;91.30
17092;DHT22;8661;45.700;4.880;2023-03-19T15:11:29;19.40;91.30
17092;DHT22;8661;45.700;4.880;2023-03-19T15:14:12;19.00;91.60
17092;DHT22;8661;45.700;4.880;2023-03-19T15:16:48;18.60;91.50
17092;DHT22;8661;45.700;4.880;2023-03-19T15:19:24;18.30;91.90
17092;DHT22;8661;45.700;4.880;2023-03-19T15:22:02;18.00;92.90
17092;DHT22;8661;45.700;4.880;2023-03-19T15:24:30;17.90;93.10
17092;DHT22;8661;45.700;4.880;2023-03-19T15:26:56;17.80;92.90
17092;DHT22;8661;45.700;4.880;2023-03-19T15:29:30;17.60;92.90
17092;DHT22;8661;45.700;4.880;2023-03-19T15:31:57;17.70;93.10
17092;DHT22;8661;45.700;4.880;2023-03-19T15:34:27;17.80;93.10
17092;DHT22;8661;45.700;4.880;2023-03-19T15:36:59;17.90;93.10
17092;DHT22;8661;45.700;4.880;2023-03-19T15:39:29;17.70;93.20
17092;DHT22;8661;45.700;4.880;2023-03-19T15:41:57;17.70;93.60
17092;DHT22;8661;45.700;4.880;2023-03-19T15:44:30;17.60;93.30
17092;DHT22;8661;45.700;4.880;2023-03-19T15:47:00;17.50;93.40
17092;DHT22;8661;45.700;4.880;2023-03-19T15:49:31;17.30;93.70
17092;DHT22;8661;45.700;4.880;2023-03-19T15:52:02;17.10;93.80
17092;DHT22;8661;45.700;4.880;2023-03-19T15:54:31;16.90;94.10
17092;DHT22;8661;45.700;4.880;2023-03-19T15:56:58;16.60;94.80
17092;DHT22;8661;45.700;4.880;2023-03-19T15:59:27;16.30;95.50
17092;DHT22;8661;45.700;4.880;2023-03-19T16:01:58;16.20;96.00
17092;DHT22;8661;45.700;4.880;2023-03-19T16:04:26;16.20;96.30
17092;DHT22;8661;45.700;4.880;2023-03-19T16:06:56;16.00;97.30
17092;DHT22;8661;45.700;4.880;2023-03-19T16:09:24;15.70;99.10